Terminal Aerodrome Forecast
Issued by NWS Wichita, KS

Home | Current Version | Previous Version | Text Only | Print | Product List | Glossary On
Versions: 1 2 3 4 5 6 7 8 9 10 11 12 13 14 15 16 17 18 19
278
FTUS43 KICT 292332
TAFICT
TAF
KICT 292332Z 3000/3024 15010KT P6SM FEW050 BKN250
     FM301500 18008KT P6SM BKN250
     FM301900 17015KT P6SM SCT040=

USA.gov is the U.S. government's official web portal to all federal, state and local government web resources and services.